N252WK PHDH-PHTO
Flight info
| Callsign | N252WK |
|---|---|
| Flight time | 0h 57m |
| Altitude | 23000 |
| Route | HNL UPP ITO |
| Aircraft | SF50/L-SDGRWY/L |
Departure
| Time | 2026-04-26 06:32 |
|---|---|
| Airport | Kawaihapai Airfield (PHDH) |
Arrival
| Time | 2026-04-26 07:30 |
|---|---|
| Airport | Hilo International Airport (PHTO) |
| Time | Latitude | Longitude | Altitude | Speed | Heading |
|---|---|---|---|---|---|
| 2026-04-26 06:20 | 21.57869 | -158.20792 | 39 ft | 0 kts | 184° |
| 2026-04-26 06:31 | 21.57881 | -158.20830 | 40 ft | 8 kts | 303° |
| 2026-04-26 06:31 | 21.57906 | -158.20879 | 40 ft | 8 kts | 294° |
| 2026-04-26 06:31 | 21.57953 | -158.20879 | 40 ft | 8 kts | 61° |
| 2026-04-26 06:31 | 21.57957 | -158.20815 | 40 ft | 22 kts | 90° |
| 2026-04-26 06:32 | 21.57955 | -158.20399 | 38 ft | 86 kts | 94° |
| 2026-04-26 06:32 | 21.57941 | -158.19592 | 240 ft | 118 kts | 91° |
| 2026-04-26 06:32 | 21.57911 | -158.18669 | 595 ft | 136 kts | 94° |
| 2026-04-26 06:32 | 21.57617 | -158.17638 | 1102 ft | 159 kts | 126° |
| 2026-04-26 06:33 | 21.56602 | -158.17056 | 1795 ft | 173 kts | 163° |
| 2026-04-26 06:33 | 21.55485 | -158.16633 | 2567 ft | 171 kts | 146° |
| 2026-04-26 06:33 | 21.54587 | -158.15841 | 3391 ft | 166 kts | 133° |
| 2026-04-26 06:33 | 21.53747 | -158.15017 | 4049 ft | 169 kts | 135° |
| 2026-04-26 06:34 | 21.52845 | -158.14168 | 4750 ft | 170 kts | 136° |
| 2026-04-26 06:34 | 21.51970 | -158.13309 | 5425 ft | 171 kts | 133° |
| 2026-04-26 06:34 | 21.51100 | -158.12440 | 6111 ft | 171 kts | 135° |
| 2026-04-26 06:34 | 21.50209 | -158.11584 | 6729 ft | 172 kts | 135° |
| 2026-04-26 06:35 | 21.49310 | -158.10720 | 7300 ft | 174 kts | 135° |
| 2026-04-26 06:35 | 21.48396 | -158.09844 | 7845 ft | 177 kts | 135° |
| 2026-04-26 06:35 | 21.47466 | -158.08956 | 8346 ft | 180 kts | 135° |
| 2026-04-26 06:35 | 21.46527 | -158.08054 | 8832 ft | 182 kts | 135° |
| 2026-04-26 06:36 | 21.45575 | -158.07141 | 9315 ft | 185 kts | 136° |
| 2026-04-26 06:36 | 21.44621 | -158.06230 | 9842 ft | 187 kts | 136° |
| 2026-04-26 06:36 | 21.43638 | -158.05289 | 10302 ft | 191 kts | 136° |
| 2026-04-26 06:36 | 21.42643 | -158.04337 | 10768 ft | 192 kts | 136° |
| 2026-04-26 06:37 | 21.41640 | -158.03379 | 11226 ft | 194 kts | 135° |
| 2026-04-26 06:37 | 21.40627 | -158.02411 | 11691 ft | 196 kts | 136° |
| 2026-04-26 06:37 | 21.39605 | -158.01437 | 12159 ft | 198 kts | 136° |
| 2026-04-26 06:37 | 21.38571 | -158.00445 | 12629 ft | 199 kts | 135° |
| 2026-04-26 06:38 | 21.37535 | -157.99453 | 13065 ft | 201 kts | 134° |
| 2026-04-26 06:38 | 21.36482 | -157.98448 | 13542 ft | 203 kts | 135° |
| 2026-04-26 06:38 | 21.35424 | -157.97436 | 13991 ft | 205 kts | 134° |
| 2026-04-26 06:38 | 21.34354 | -157.96412 | 14406 ft | 206 kts | 135° |
| 2026-04-26 06:39 | 21.33283 | -157.95387 | 14824 ft | 208 kts | 135° |
| 2026-04-26 06:39 | 21.32197 | -157.94348 | 15247 ft | 209 kts | 134° |
| 2026-04-26 06:39 | 21.31126 | -157.93290 | 15663 ft | 209 kts | 129° |
| 2026-04-26 06:39 | 21.30377 | -157.91992 | 16061 ft | 207 kts | 111° |
| 2026-04-26 06:40 | 21.29849 | -157.90661 | 16470 ft | 207 kts | 111° |
| 2026-04-26 06:40 | 21.29253 | -157.89258 | 16895 ft | 209 kts | 112° |
| 2026-04-26 06:40 | 21.28641 | -157.87825 | 17317 ft | 211 kts | 111° |
| 2026-04-26 06:40 | 21.28038 | -157.86388 | 17748 ft | 212 kts | 110° |
| 2026-04-26 06:41 | 21.27435 | -157.84950 | 18175 ft | 213 kts | 110° |
| 2026-04-26 06:41 | 21.26825 | -157.83494 | 18576 ft | 214 kts | 110° |
| 2026-04-26 06:41 | 21.26209 | -157.82032 | 18935 ft | 216 kts | 111° |
| 2026-04-26 06:41 | 21.25590 | -157.80556 | 19315 ft | 218 kts | 111° |
| 2026-04-26 06:42 | 21.24965 | -157.79065 | 19652 ft | 220 kts | 110° |
| 2026-04-26 06:42 | 21.24340 | -157.77581 | 20006 ft | 222 kts | 110° |
| 2026-04-26 06:42 | 21.23702 | -157.76063 | 20361 ft | 224 kts | 110° |
| 2026-04-26 06:42 | 21.23049 | -157.74514 | 20726 ft | 226 kts | 110° |
| 2026-04-26 06:43 | 21.22406 | -157.72989 | 21082 ft | 228 kts | 110° |
| 2026-04-26 06:43 | 21.21754 | -157.71441 | 21476 ft | 228 kts | 109° |
| 2026-04-26 06:43 | 21.21104 | -157.69897 | 21867 ft | 228 kts | 109° |
| 2026-04-26 06:43 | 21.20452 | -157.68345 | 22259 ft | 228 kts | 110° |
| 2026-04-26 06:44 | 21.19798 | -157.66795 | 22645 ft | 228 kts | 111° |
| 2026-04-26 06:44 | 21.19146 | -157.65247 | 23025 ft | 229 kts | 110° |
| 2026-04-26 06:44 | 21.18473 | -157.63643 | 23065 ft | 244 kts | 110° |
| 2026-04-26 06:44 | 21.17757 | -157.61935 | 23085 ft | 258 kts | 110° |
| 2026-04-26 06:45 | 21.16999 | -157.60144 | 23077 ft | 269 kts | 110° |
| 2026-04-26 06:45 | 21.16214 | -157.58286 | 23074 ft | 279 kts | 110° |
| 2026-04-26 06:45 | 21.15403 | -157.56362 | 23074 ft | 286 kts | 111° |
| 2026-04-26 06:45 | 21.14576 | -157.54404 | 23081 ft | 292 kts | 111° |
| 2026-04-26 06:46 | 21.13728 | -157.52400 | 23077 ft | 296 kts | 111° |
| 2026-04-26 06:46 | 21.12876 | -157.50380 | 23079 ft | 300 kts | 110° |
| 2026-04-26 06:46 | 21.12009 | -157.48333 | 23076 ft | 303 kts | 111° |
| 2026-04-26 06:46 | 21.11135 | -157.46265 | 23082 ft | 306 kts | 110° |
| 2026-04-26 06:47 | 21.10254 | -157.44183 | 23079 ft | 307 kts | 111° |
| 2026-04-26 06:47 | 21.09373 | -157.42103 | 23078 ft | 307 kts | 110° |
| 2026-04-26 06:47 | 21.08493 | -157.40025 | 23094 ft | 306 kts | 111° |
| 2026-04-26 06:47 | 21.07613 | -157.37952 | 23090 ft | 304 kts | 111° |
| 2026-04-26 06:48 | 21.06751 | -157.35918 | 23089 ft | 303 kts | 111° |
| 2026-04-26 06:48 | 21.05884 | -157.33870 | 23086 ft | 301 kts | 111° |
| 2026-04-26 06:48 | 21.05021 | -157.31835 | 23090 ft | 300 kts | 111° |
| 2026-04-26 06:48 | 21.04161 | -157.29808 | 23087 ft | 298 kts | 111° |
| 2026-04-26 06:49 | 21.03305 | -157.27793 | 23087 ft | 297 kts | 111° |
| 2026-04-26 06:49 | 21.02451 | -157.25783 | 23088 ft | 296 kts | 111° |
| 2026-04-26 06:49 | 21.01601 | -157.23780 | 23090 ft | 295 kts | 111° |
| 2026-04-26 06:49 | 21.00752 | -157.21783 | 23088 ft | 294 kts | 111° |
| 2026-04-26 06:50 | 20.99906 | -157.19792 | 23093 ft | 293 kts | 111° |
| 2026-04-26 06:50 | 20.99062 | -157.17809 | 23097 ft | 293 kts | 111° |
| 2026-04-26 06:50 | 20.98219 | -157.15826 | 23088 ft | 292 kts | 111° |
| 2026-04-26 06:50 | 20.97377 | -157.13846 | 23092 ft | 292 kts | 112° |
| 2026-04-26 06:51 | 20.96535 | -157.11869 | 23087 ft | 292 kts | 111° |
| 2026-04-26 06:51 | 20.94863 | -157.07942 | 23100 ft | 291 kts | 112° |
| 2026-04-26 06:51 | 20.94021 | -157.05965 | 23114 ft | 291 kts | 112° |
| 2026-04-26 06:52 | 20.93178 | -157.03989 | 23106 ft | 291 kts | 112° |
| 2026-04-26 06:52 | 20.92337 | -157.02017 | 23122 ft | 291 kts | 112° |
| 2026-04-26 06:52 | 20.91494 | -157.00042 | 23114 ft | 292 kts | 112° |
| 2026-04-26 06:52 | 20.90653 | -156.98069 | 23126 ft | 292 kts | 112° |
| 2026-04-26 06:53 | 20.89809 | -156.96092 | 23119 ft | 292 kts | 112° |
| 2026-04-26 06:53 | 20.88966 | -156.94120 | 23120 ft | 292 kts | 112° |
| 2026-04-26 06:53 | 20.88121 | -156.92142 | 23122 ft | 292 kts | 112° |
| 2026-04-26 06:53 | 20.87289 | -156.90193 | 23124 ft | 292 kts | 112° |
| 2026-04-26 06:54 | 20.86444 | -156.88220 | 23123 ft | 292 kts | 112° |
| 2026-04-26 06:54 | 20.85597 | -156.86242 | 23127 ft | 292 kts | 112° |
| 2026-04-26 06:54 | 20.84752 | -156.84269 | 23121 ft | 292 kts | 112° |
| 2026-04-26 06:54 | 20.83906 | -156.82290 | 23115 ft | 292 kts | 112° |
| 2026-04-26 06:55 | 20.83059 | -156.80315 | 23119 ft | 292 kts | 112° |
| 2026-04-26 06:55 | 20.82210 | -156.78336 | 23110 ft | 292 kts | 112° |
| 2026-04-26 06:55 | 20.81366 | -156.76365 | 23107 ft | 292 kts | 112° |
| 2026-04-26 06:55 | 20.80520 | -156.74394 | 23109 ft | 292 kts | 112° |
| 2026-04-26 06:56 | 20.79673 | -156.72420 | 23100 ft | 292 kts | 112° |
| 2026-04-26 06:56 | 20.78827 | -156.70450 | 23101 ft | 291 kts | 112° |
| 2026-04-26 06:56 | 20.77982 | -156.68481 | 23097 ft | 291 kts | 112° |
| 2026-04-26 06:56 | 20.77137 | -156.66514 | 23080 ft | 291 kts | 112° |
| 2026-04-26 06:57 | 20.76299 | -156.64565 | 23082 ft | 291 kts | 112° |
| 2026-04-26 06:57 | 20.75452 | -156.62596 | 23082 ft | 291 kts | 112° |
| 2026-04-26 06:57 | 20.74606 | -156.60629 | 23083 ft | 291 kts | 112° |
| 2026-04-26 06:57 | 20.73760 | -156.58663 | 23082 ft | 291 kts | 112° |
| 2026-04-26 06:58 | 20.72913 | -156.56692 | 23092 ft | 291 kts | 112° |
| 2026-04-26 06:58 | 20.72067 | -156.54724 | 23097 ft | 291 kts | 112° |
| 2026-04-26 06:58 | 20.71218 | -156.52755 | 23092 ft | 291 kts | 112° |
| 2026-04-26 06:58 | 20.70371 | -156.50788 | 23090 ft | 292 kts | 112° |
| 2026-04-26 06:59 | 20.69524 | -156.48821 | 23089 ft | 292 kts | 112° |
| 2026-04-26 06:59 | 20.68960 | -156.47513 | 23087 ft | 292 kts | 112° |
| 2026-04-26 06:59 | 20.68115 | -156.45551 | 23088 ft | 292 kts | 112° |
| 2026-04-26 06:59 | 20.67265 | -156.43582 | 23083 ft | 292 kts | 112° |
| 2026-04-26 07:00 | 20.66426 | -156.41614 | 23088 ft | 291 kts | 110° |
| 2026-04-26 07:00 | 20.65631 | -156.39629 | 23084 ft | 291 kts | 111° |
| 2026-04-26 07:00 | 20.64804 | -156.37657 | 23090 ft | 291 kts | 111° |
| 2026-04-26 07:00 | 20.63985 | -156.35691 | 23085 ft | 290 kts | 111° |
| 2026-04-26 07:01 | 20.63180 | -156.33717 | 23080 ft | 290 kts | 110° |
| 2026-04-26 07:01 | 20.62374 | -156.31742 | 23084 ft | 290 kts | 110° |
| 2026-04-26 07:01 | 20.61564 | -156.29771 | 23081 ft | 290 kts | 111° |
| 2026-04-26 07:01 | 20.60746 | -156.27790 | 23091 ft | 291 kts | 111° |
| 2026-04-26 07:02 | 20.59942 | -156.25837 | 23092 ft | 291 kts | 111° |
| 2026-04-26 07:02 | 20.59129 | -156.23860 | 23086 ft | 291 kts | 111° |
| 2026-04-26 07:02 | 20.58318 | -156.21892 | 23089 ft | 291 kts | 111° |
| 2026-04-26 07:02 | 20.57500 | -156.19906 | 23096 ft | 291 kts | 111° |
| 2026-04-26 07:03 | 20.56683 | -156.17926 | 23098 ft | 291 kts | 111° |
| 2026-04-26 07:03 | 20.55864 | -156.15944 | 23088 ft | 292 kts | 111° |
| 2026-04-26 07:03 | 20.55047 | -156.13961 | 23100 ft | 292 kts | 111° |
| 2026-04-26 07:03 | 20.54229 | -156.11980 | 23095 ft | 292 kts | 110° |
| 2026-04-26 07:04 | 20.53413 | -156.10004 | 23093 ft | 292 kts | 110° |
| 2026-04-26 07:04 | 20.52590 | -156.08016 | 23098 ft | 292 kts | 111° |
| 2026-04-26 07:04 | 20.51768 | -156.06041 | 23093 ft | 292 kts | 111° |
| 2026-04-26 07:04 | 20.50942 | -156.04066 | 23091 ft | 292 kts | 110° |
| 2026-04-26 07:05 | 20.50123 | -156.02088 | 23091 ft | 292 kts | 110° |
| 2026-04-26 07:05 | 20.49307 | -156.00105 | 23091 ft | 292 kts | 110° |
| 2026-04-26 07:05 | 20.48483 | -155.98116 | 23092 ft | 292 kts | 110° |
| 2026-04-26 07:05 | 20.47663 | -155.96135 | 23093 ft | 292 kts | 110° |
| 2026-04-26 07:06 | 20.46845 | -155.94156 | 23099 ft | 292 kts | 110° |
| 2026-04-26 07:06 | 20.46040 | -155.92201 | 23093 ft | 292 kts | 110° |
| 2026-04-26 07:06 | 20.45232 | -155.90218 | 23095 ft | 292 kts | 111° |
| 2026-04-26 07:06 | 20.44413 | -155.88231 | 23091 ft | 292 kts | 111° |
| 2026-04-26 07:07 | 20.43585 | -155.86245 | 23090 ft | 292 kts | 111° |
| 2026-04-26 07:07 | 20.42763 | -155.84264 | 23089 ft | 293 kts | 111° |
| 2026-04-26 07:07 | 20.41941 | -155.82277 | 23091 ft | 293 kts | 111° |
| 2026-04-26 07:07 | 20.41115 | -155.80287 | 23093 ft | 293 kts | 110° |
| 2026-04-26 07:08 | 20.40290 | -155.78305 | 23098 ft | 293 kts | 111° |
| 2026-04-26 07:08 | 20.39465 | -155.76316 | 23091 ft | 293 kts | 111° |
| 2026-04-26 07:08 | 20.38640 | -155.74326 | 23099 ft | 293 kts | 111° |
| 2026-04-26 07:08 | 20.37810 | -155.72332 | 23094 ft | 293 kts | 112° |
| 2026-04-26 07:09 | 20.36984 | -155.70346 | 23092 ft | 293 kts | 111° |
| 2026-04-26 07:09 | 20.36158 | -155.68357 | 23094 ft | 293 kts | 111° |
| 2026-04-26 07:09 | 20.35334 | -155.66374 | 23066 ft | 294 kts | 111° |
| 2026-04-26 07:09 | 20.34490 | -155.64348 | 22759 ft | 304 kts | 111° |
| 2026-04-26 07:10 | 20.31868 | -155.58067 | 21537 ft | 299 kts | 111° |
| 2026-04-26 07:11 | 20.30225 | -155.54120 | 20774 ft | 285 kts | 111° |
| 2026-04-26 07:11 | 20.29426 | -155.52203 | 20402 ft | 281 kts | 112° |
| 2026-04-26 07:11 | 20.28636 | -155.50312 | 20034 ft | 278 kts | 112° |
| 2026-04-26 07:11 | 20.27859 | -155.48455 | 19676 ft | 279 kts | 112° |
| 2026-04-26 07:12 | 20.27068 | -155.46560 | 19305 ft | 280 kts | 112° |
| 2026-04-26 07:12 | 20.26270 | -155.44649 | 18934 ft | 284 kts | 112° |
| 2026-04-26 07:12 | 20.25461 | -155.42709 | 18560 ft | 289 kts | 112° |
| 2026-04-26 07:12 | 20.24634 | -155.40734 | 18146 ft | 292 kts | 112° |
| 2026-04-26 07:13 | 20.23803 | -155.38751 | 17750 ft | 293 kts | 112° |
| 2026-04-26 07:13 | 20.22970 | -155.36761 | 17315 ft | 295 kts | 112° |
| 2026-04-26 07:13 | 20.22132 | -155.34756 | 16873 ft | 297 kts | 112° |
| 2026-04-26 07:13 | 20.21292 | -155.32749 | 16470 ft | 297 kts | 112° |
| 2026-04-26 07:14 | 20.20459 | -155.30763 | 16080 ft | 297 kts | 112° |
| 2026-04-26 07:14 | 20.19618 | -155.28762 | 15697 ft | 297 kts | 112° |
| 2026-04-26 07:14 | 20.18778 | -155.26754 | 15300 ft | 297 kts | 112° |
| 2026-04-26 07:14 | 20.17935 | -155.24742 | 14906 ft | 297 kts | 113° |
| 2026-04-26 07:15 | 20.17063 | -155.22755 | 14514 ft | 296 kts | 118° |
| 2026-04-26 07:15 | 20.15812 | -155.21007 | 14123 ft | 297 kts | 133° |
| 2026-04-26 07:15 | 20.14368 | -155.19438 | 13715 ft | 297 kts | 134° |
| 2026-04-26 07:15 | 20.12935 | -155.17854 | 13314 ft | 296 kts | 133° |
| 2026-04-26 07:16 | 20.11510 | -155.16264 | 12917 ft | 296 kts | 133° |
| 2026-04-26 07:16 | 20.10086 | -155.14691 | 12530 ft | 295 kts | 134° |
| 2026-04-26 07:16 | 20.08656 | -155.13130 | 12143 ft | 295 kts | 134° |
| 2026-04-26 07:16 | 20.07246 | -155.11584 | 11753 ft | 294 kts | 134° |
| 2026-04-26 07:17 | 20.05826 | -155.10020 | 11368 ft | 294 kts | 134° |
| 2026-04-26 07:17 | 20.04399 | -155.08454 | 10977 ft | 294 kts | 134° |
| 2026-04-26 07:17 | 20.02976 | -155.06892 | 10588 ft | 294 kts | 134° |
| 2026-04-26 07:17 | 20.01553 | -155.05330 | 10199 ft | 294 kts | 134° |
| 2026-04-26 07:18 | 20.00130 | -155.03769 | 9795 ft | 294 kts | 134° |
| 2026-04-26 07:18 | 19.98640 | -155.02303 | 9487 ft | 288 kts | 146° |
| 2026-04-26 07:18 | 19.96838 | -155.01534 | 9546 ft | 273 kts | 162° |
| 2026-04-26 07:18 | 19.95238 | -155.00494 | 9467 ft | 270 kts | 135° |
| 2026-04-26 07:19 | 19.94306 | -154.98795 | 9463 ft | 266 kts | 107° |
| 2026-04-26 07:19 | 19.94029 | -154.96864 | 9453 ft | 263 kts | 95° |
| 2026-04-26 07:19 | 19.93898 | -154.94930 | 9352 ft | 265 kts | 94° |
| 2026-04-26 07:19 | 19.93776 | -154.92936 | 8979 ft | 275 kts | 93° |
| 2026-04-26 07:20 | 19.93659 | -154.90894 | 8606 ft | 279 kts | 92° |
| 2026-04-26 07:20 | 19.93624 | -154.88819 | 8237 ft | 282 kts | 90° |
| 2026-04-26 07:20 | 19.93604 | -154.86755 | 7872 ft | 282 kts | 90° |
| 2026-04-26 07:20 | 19.93578 | -154.84703 | 7446 ft | 267 kts | 90° |
| 2026-04-26 07:21 | 19.93359 | -154.82819 | 6980 ft | 258 kts | 107° |
| 2026-04-26 07:21 | 19.92386 | -154.81248 | 6525 ft | 257 kts | 136° |
| 2026-04-26 07:21 | 19.90829 | -154.80375 | 6164 ft | 253 kts | 162° |
| 2026-04-26 07:21 | 19.89126 | -154.80007 | 5838 ft | 248 kts | 168° |
| 2026-04-26 07:22 | 19.87434 | -154.79724 | 5517 ft | 245 kts | 169° |
| 2026-04-26 07:22 | 19.85733 | -154.79445 | 4839 ft | 255 kts | 169° |
| 2026-04-26 07:22 | 19.83924 | -154.79148 | 3807 ft | 261 kts | 169° |
| 2026-04-26 07:22 | 19.82181 | -154.78863 | 2654 ft | 245 kts | 169° |
| 2026-04-26 07:23 | 19.80635 | -154.78614 | 2749 ft | 215 kts | 169° |
| 2026-04-26 07:23 | 19.79216 | -154.78385 | 2864 ft | 199 kts | 169° |
| 2026-04-26 07:23 | 19.77864 | -154.78170 | 2979 ft | 196 kts | 169° |
| 2026-04-26 07:23 | 19.76513 | -154.78161 | 3085 ft | 196 kts | 192° |
| 2026-04-26 07:24 | 19.75365 | -154.78945 | 3115 ft | 202 kts | 228° |
| 2026-04-26 07:24 | 19.74573 | -154.80181 | 3128 ft | 204 kts | 239° |
| 2026-04-26 07:24 | 19.73847 | -154.81488 | 3139 ft | 207 kts | 239° |
| 2026-04-26 07:24 | 19.73248 | -154.82872 | 3139 ft | 207 kts | 251° |
| 2026-04-26 07:25 | 19.72778 | -154.84338 | 3084 ft | 212 kts | 251° |
| 2026-04-26 07:25 | 19.72328 | -154.85718 | 2905 ft | 185 kts | 253° |
| 2026-04-26 07:25 | 19.72164 | -154.87002 | 2674 ft | 177 kts | 271° |
| 2026-04-26 07:25 | 19.72145 | -154.88314 | 2407 ft | 177 kts | 271° |
| 2026-04-26 07:26 | 19.72127 | -154.89573 | 2172 ft | 167 kts | 272° |
| 2026-04-26 07:26 | 19.72139 | -154.90762 | 1986 ft | 155 kts | 273° |
| 2026-04-26 07:26 | 19.72130 | -154.91889 | 1810 ft | 158 kts | 271° |
| 2026-04-26 07:26 | 19.72140 | -154.93074 | 1635 ft | 161 kts | 272° |
| 2026-04-26 07:27 | 19.72130 | -154.94263 | 1454 ft | 159 kts | 271° |
| 2026-04-26 07:27 | 19.72136 | -154.95342 | 1284 ft | 132 kts | 273° |
| 2026-04-26 07:27 | 19.72133 | -154.96280 | 1134 ft | 124 kts | 271° |
| 2026-04-26 07:27 | 19.72131 | -154.97192 | 1003 ft | 124 kts | 272° |
| 2026-04-26 07:28 | 19.72136 | -154.98063 | 866 ft | 106 kts | 271° |
| 2026-04-26 07:28 | 19.72136 | -154.98794 | 745 ft | 95 kts | 270° |
| 2026-04-26 07:28 | 19.72141 | -154.99479 | 627 ft | 93 kts | 269° |
| 2026-04-26 07:28 | 19.72134 | -155.00153 | 540 ft | 89 kts | 268° |
| 2026-04-26 07:29 | 19.72138 | -155.00798 | 464 ft | 86 kts | 269° |
| 2026-04-26 07:29 | 19.72142 | -155.01415 | 402 ft | 85 kts | 267° |
| 2026-04-26 07:29 | 19.72142 | -155.02032 | 290 ft | 84 kts | 268° |
| 2026-04-26 07:29 | 19.72143 | -155.02626 | 159 ft | 81 kts | 269° |
| 2026-04-26 07:30 | 19.72144 | -155.03197 | 48 ft | 74 kts | 267° |
| 2026-04-26 07:30 | 19.72145 | -155.03659 | 40 ft | 51 kts | 270° |
| 2026-04-26 07:30 | 19.72146 | -155.03986 | 39 ft | 38 kts | 270° |
| 2026-04-26 07:30 | 19.72146 | -155.04230 | 34 ft | 30 kts | 271° |
| 2026-04-26 07:31 | 19.72145 | -155.04422 | 33 ft | 23 kts | 271° |
| 2026-04-26 07:31 | 19.72146 | -155.04662 | 31 ft | 39 kts | 270° |
| 2026-04-26 07:31 | 19.72144 | -155.04869 | 31 ft | 14 kts | 259° |
| 2026-04-26 07:31 | 19.72085 | -155.04914 | 32 ft | 9 kts | 194° |
| 2026-04-26 07:32 | 19.72040 | -155.04917 | 32 ft | 6 kts | 179° |
| 2026-04-26 07:32 | 19.72012 | -155.04982 | 32 ft | 10 kts | 275° |
| 2026-04-26 07:32 | 19.72015 | -155.05066 | 32 ft | 12 kts | 268° |
| 2026-04-26 07:32 | 19.71992 | -155.05132 | 31 ft | 9 kts | 212° |
| 2026-04-26 07:33 | 19.71937 | -155.05150 | 31 ft | 8 kts | 167° |
| 2026-04-26 07:33 | 19.71907 | -155.05143 | 31 ft | 0 kts | 219° |